EGV weather

Eagle River Union Airport
Eagle River, Wisconsin, United States

Public forecast

Using degrees Fahrenheit for public forecast. Weather courtesy of forecast.io.

METAR (pilot weather report)

Retrieved 2019/08/18 21:35 UTC (0 seconds ago):

KEGV 182135Z AUTO 30009KT 10SM SCT029 BKN042 BKN049 20/14 A2978 RMK AO2 T01970136

TAF (pilot weather forecast)

Closest forecast is Rhinelander Oneida County Airport, 19.9 nm (36.9 km) SSW. Retrieved 2019/08/18 18:22 UTC (3 hours ago):

TAF KRHI 181720Z 1818/1918 28015G26KT P6SM VCSH BKN014 FM182100 28010G16KT P6SM BKN030 FM190000 28006KT P6SM SCT050 FM190400 27004KT P6SM SKC TEMPO 1908/1912 2SM BR FM191500 23008KT P6SM FEW040